Time;durP1;ratioP1;P1;durP2;ratioP2;P2;SDS_P1;SDS_P2;PMS_P1;PMS_P2;Temp;Humidity;BMP_temperature;BMP_pressure;BME280_temperature;BME280_humidity;BME280_pressure;Samples;Min_cycle;Max_cycle;Signal;HPM_P1;HPM_P2
2022/08/28 00:01:39;;;;;;;13.00;2.88;;;;;;;17.39;92.51;100765.59;5207662;28;20052;-73
2022/08/28 00:04:09;;;;;;;13.93;3.42;;;;;;;17.18;93.02;100769.50;5199484;28;20543;-73
2022/08/28 00:06:39;;;;;;;11.57;2.38;;;;;;;17.17;92.38;100770.44;5188292;28;20430;-73
2022/08/28 00:09:11;;;;;;;9.93;2.90;;;;;;;17.14;92.71;100763.53;5209645;28;20078;-73
2022/08/28 00:11:41;;;;;;;16.35;3.13;;;;;;;17.22;93.27;100760.44;5209002;28;20508;-72
2022/08/28 00:14:12;;;;;;;13.15;3.20;;;;;;;17.17;92.66;100767.78;5202609;28;20034;-72
2022/08/28 00:16:43;;;;;;;12.00;3.08;;;;;;;17.19;93.06;100766.78;5183753;28;20047;-73
2022/08/28 00:19:15;;;;;;;11.40;2.95;;;;;;;17.11;93.27;100768.16;5198593;28;20017;-73
2022/08/28 00:21:46;;;;;;;13.20;2.92;;;;;;;17.07;94.20;100774.53;5205329;28;20067;-73
2022/08/28 00:24:17;;;;;;;14.75;3.50;;;;;;;16.93;93.96;100771.84;5204676;28;20025;-73
2022/08/28 00:29:37;;;;;;;12.27;2.88;;;;;;;17.06;92.72;100772.84;5206672;28;20040;-73
2022/08/28 00:32:07;;;;;;;11.98;2.95;;;;;;;17.13;93.21;100766.28;5209421;28;20029;-73
2022/08/28 00:34:38;;;;;;;14.50;3.00;;;;;;;16.98;93.65;100770.66;5207063;28;20506;-73
2022/08/28 00:37:08;;;;;;;18.48;3.83;;;;;;;17.01;93.50;100772.28;5187693;28;20048;-74
2022/08/28 00:39:38;;;;;;;11.93;2.75;;;;;;;16.99;94.03;100768.88;5202721;28;20112;-73
2022/08/28 00:42:09;;;;;;;12.52;3.10;;;;;;;16.83;94.38;100770.72;5208416;28;20348;-73
2022/08/28 00:44:39;;;;;;;14.02;3.03;;;;;;;16.86;94.35;100773.16;5208008;28;20029;-73
2022/08/28 00:47:10;;;;;;;13.55;3.00;;;;;;;16.72;95.42;100777.56;5203716;28;20036;-73
2022/08/28 00:49:51;;;;;;;16.67;3.20;;;;;;;16.65;95.64;100777.03;5223181;22;20069;-77
2022/08/28 00:52:25;;;;;;;10.90;2.88;;;;;;;16.66;96.00;100781.38;5188067;28;20040;-76
2022/08/28 00:55:00;;;;;;;13.82;3.65;;;;;;;16.65;95.27;100774.41;5187297;28;20028;-76
2022/08/28 00:57:43;;;;;;;10.65;3.10;;;;;;;16.74;96.17;100768.59;5212415;28;20028;-77
2022/08/28 01:00:26;;;;;;;11.02;3.15;;;;;;;16.77;95.78;100775.47;5193136;28;20029;-74
2022/08/28 01:02:57;;;;;;;14.27;2.70;;;;;;;16.61;96.09;100775.53;5187243;28;20499;-76
2022/08/28 01:05:27;;;;;;;13.50;3.25;;;;;;;16.77;96.21;100775.47;5229456;28;20028;-77
2022/08/28 01:07:58;;;;;;;13.13;3.35;;;;;;;16.73;96.12;100766.88;5209131;28;20026;-76
2022/08/28 01:10:31;;;;;;;15.98;3.28;;;;;;;16.64;96.42;100772.72;5198349;28;20373;-76
2022/08/28 01:13:02;;;;;;;13.73;3.28;;;;;;;16.66;96.34;100776.09;5227526;28;20486;-76
2022/08/28 01:15:35;;;;;;;14.98;3.25;;;;;;;16.76;96.02;100776.44;5229818;28;20040;-77
2022/08/28 01:18:09;;;;;;;17.38;3.63;;;;;;;16.66;96.36;100776.09;5202186;28;20447;-72
2022/08/28 01:20:45;;;;;;;10.57;2.70;;;;;;;16.70;97.36;100782.06;5220358;28;20018;-76
2022/08/28 01:23:50;;;;;;;13.60;3.17;;;;;;;16.62;97.57;100781.63;5221564;28;20055;-77
2022/08/28 01:26:21;;;;;;;12.25;2.80;;;;;;;16.63;97.76;100783.34;5202623;28;20020;-77
2022/08/28 01:28:52;;;;;;;17.55;3.47;;;;;;;16.54;98.47;100781.25;5219252;28;20375;-77
2022/08/28 01:31:23;;;;;;;14.57;3.22;;;;;;;16.48;97.61;100785.06;5223756;28;20032;-76
2022/08/28 01:33:54;;;;;;;10.52;3.13;;;;;;;16.50;97.49;100791.09;5200505;28;20025;-77
2022/08/28 01:36:24;;;;;;;11.65;3.40;;;;;;;16.52;97.89;100791.88;5221559;28;20074;-76
2022/08/28 01:39:02;;;;;;;12.63;3.10;;;;;;;16.60;98.34;100792.31;5212171;28;20336;-75
2022/08/28 01:41:34;;;;;;;12.98;3.30;;;;;;;16.43;98.08;100795.03;5221412;28;20028;-75
2022/08/28 01:44:05;;;;;;;14.75;3.35;;;;;;;16.39;99.79;100796.13;5221235;28;20360;-77
2022/08/28 01:46:35;;;;;;;11.85;3.30;;;;;;;16.31;100.00;100797.44;5222139;28;20037;-72
2022/08/28 01:49:05;;;;;;;13.25;2.88;;;;;;;16.55;98.67;100783.78;5212555;28;20228;-76
2022/08/28 01:51:40;;;;;;;13.55;3.05;;;;;;;16.36;99.38;100792.81;5204644;28;20043;-76
2022/08/28 01:54:10;;;;;;;13.73;3.00;;;;;;;16.53;98.83;100793.56;5218388;28;20038;-76
2022/08/28 01:56:43;;;;;;;13.00;3.25;;;;;;;16.36;100.00;100795.47;5221358;28;20033;-77
2022/08/28 01:59:13;;;;;;;14.43;3.53;;;;;;;16.28;100.00;100801.13;5196869;28;20160;-77
2022/08/28 02:01:44;;;;;;;13.70;3.20;;;;;;;16.41;99.38;100786.31;5224657;28;20047;-77
2022/08/28 02:04:15;;;;;;;12.07;3.05;;;;;;;16.41;99.56;100786.31;5205122;28;20045;-77
2022/08/28 02:06:45;;;;;;;14.30;2.92;;;;;;;16.38;99.47;100790.94;5212841;28;20078;-77
2022/08/28 02:09:16;;;;;;;18.88;4.03;;;;;;;16.32;100.00;100791.22;5212516;28;20041;-76
2022/08/28 02:11:46;;;;;;;12.60;3.72;;;;;;;16.37;99.73;100795.34;5209480;28;20045;-77
2022/08/28 02:14:17;;;;;;;13.68;3.20;;;;;;;16.34;99.98;100800.78;5219372;28;20077;-77
2022/08/28 02:16:48;;;;;;;15.95;3.63;;;;;;;16.41;100.00;100807.44;5223979;28;20021;-77
2022/08/28 02:19:19;;;;;;;16.83;3.83;;;;;;;16.32;99.49;100800.00;5212867;28;20056;-77
2022/08/28 02:21:50;;;;;;;12.07;3.28;;;;;;;16.28;100.00;100795.84;5194860;28;20033;-75
2022/08/28 02:24:21;;;;;;;12.32;2.80;;;;;;;16.40;100.00;100791.72;5216558;28;20509;-75
2022/08/28 02:26:51;;;;;;;15.43;3.58;;;;;;;16.38;99.85;100802.34;5196501;28;20048;-77
2022/08/28 02:29:22;;;;;;;14.60;3.85;;;;;;;16.36;99.39;100801.56;5216764;28;20025;-77
2022/08/28 02:31:53;;;;;;;14.23;3.50;;;;;;;16.21;100.00;100801.53;5225234;28;20131;-76
2022/08/28 02:34:23;;;;;;;8.93;2.35;;;;;;;16.20;100.00;100798.03;5195298;28;20033;-77
2022/08/28 02:36:55;;;;;;;10.13;2.95;;;;;;;16.23;100.00;100803.16;5195146;28;20026;-76
2022/08/28 02:39:25;;;;;;;12.45;3.05;;;;;;;16.24;100.00;100799.56;5212926;28;20033;-76
2022/08/28 02:41:55;;;;;;;14.80;3.40;;;;;;;16.15;99.91;100789.53;5212315;28;20112;-75
2022/08/28 02:44:26;;;;;;;14.93;3.78;;;;;;;16.25;100.00;100797.81;5222677;28;20031;-76
2022/08/28 02:46:56;;;;;;;15.35;3.55;;;;;;;16.03;100.00;100792.84;5201170;28;20025;-76
2022/08/28 02:49:26;;;;;;;13.73;3.35;;;;;;;16.01;100.00;100792.06;5197589;28;20379;-76
2022/08/28 02:51:57;;;;;;;16.83;3.20;;;;;;;16.01;100.00;100793.88;5213597;28;20087;-75
2022/08/28 02:54:28;;;;;;;15.63;3.70;;;;;;;16.10;100.00;100786.31;5216902;28;20059;-76
2022/08/28 02:56:58;;;;;;;14.60;3.58;;;;;;;16.00;100.00;100795.66;5218529;28;20486;-76
2022/08/28 02:59:28;;;;;;;15.40;3.60;;;;;;;16.24;100.00;100789.03;5214141;28;20108;-76
2022/08/28 03:02:02;;;;;;;15.27;3.42;;;;;;;16.10;100.00;100796.88;5198782;28;20049;-75
2022/08/28 03:04:34;;;;;;;13.27;3.35;;;;;;;16.07;100.00;100797.00;5218771;28;20421;-74
2022/08/28 03:07:10;;;;;;;17.60;3.67;;;;;;;16.15;100.00;100794.81;5213488;28;20422;-76
2022/08/28 03:09:42;;;;;;;12.65;3.50;;;;;;;16.19;100.00;100795.50;5209825;28;20101;-76
2022/08/28 03:12:13;;;;;;;14.95;3.47;;;;;;;16.03;100.00;100790.19;5214753;28;20059;-76
2022/08/28 03:14:43;;;;;;;14.68;3.53;;;;;;;15.82;100.00;100791.38;5199272;28;20041;-76
2022/08/28 03:17:13;;;;;;;14.07;3.10;;;;;;;15.84;100.00;100804.47;5212322;28;20087;-76
2022/08/28 03:19:44;;;;;;;14.52;3.15;;;;;;;16.02;100.00;100796.41;5212099;28;20492;-75
2022/08/28 03:22:16;;;;;;;13.43;3.25;;;;;;;15.96;100.00;100798.53;5197647;28;20025;-76
2022/08/28 03:24:46;;;;;;;16.85;3.38;;;;;;;16.07;100.00;100802.28;5208414;28;20129;-74
2022/08/28 03:27:16;;;;;;;16.70;3.35;;;;;;;16.21;100.00;100798.91;5210381;28;20056;-76
2022/08/28 03:29:47;;;;;;;12.90;3.33;;;;;;;16.16;100.00;100804.44;5213854;28;20020;-76
2022/08/28 03:32:17;;;;;;;11.48;3.38;;;;;;;16.15;100.00;100800.09;5212847;28;20542;-75
2022/08/28 03:34:48;;;;;;;13.77;3.60;;;;;;;16.20;100.00;100798.03;5197927;28;20124;-76
2022/08/28 03:37:19;;;;;;;16.50;3.72;;;;;;;15.95;100.00;100797.69;5193153;28;20025;-75
2022/08/28 03:39:49;;;;;;;18.85;4.00;;;;;;;16.24;100.00;100804.84;5203053;28;20033;-75
2022/08/28 03:42:19;;;;;;;12.05;3.30;;;;;;;16.15;100.00;100805.38;5210059;28;20025;-74
2022/08/28 03:44:50;;;;;;;11.82;3.28;;;;;;;16.35;100.00;100801.69;5192544;28;20031;-75
2022/08/28 03:47:21;;;;;;;15.40;3.17;;;;;;;16.29;100.00;100802.81;5210875;28;20021;-75
2022/08/28 03:49:58;;;;;;;11.52;3.10;;;;;;;16.33;100.00;100804.34;5197696;28;20020;-75
2022/08/28 03:52:30;;;;;;;13.73;3.20;;;;;;;16.29;100.00;100808.09;5215773;28;20025;-75
2022/08/28 03:55:00;;;;;;;15.95;3.30;;;;;;;16.32;100.00;100813.19;5216457;28;20029;-75
2022/08/28 03:57:31;;;;;;;16.48;3.88;;;;;;;16.06;100.00;100819.03;5216765;28;20021;-75
2022/08/28 04:00:06;;;;;;;17.40;3.35;;;;;;;16.04;100.00;100814.78;5218731;28;20457;-75
2022/08/28 04:02:36;;;;;;;17.42;3.47;;;;;;;16.20;100.00;100819.13;5196700;28;20021;-76
2022/08/28 04:05:09;;;;;;;13.82;3.15;;;;;;;16.26;100.00;100821.47;5214455;28;20543;-75
2022/08/28 04:07:40;;;;;;;15.32;4.05;;;;;;;16.00;100.00;100819.38;5209578;28;20052;-76
2022/08/28 04:10:11;;;;;;;16.17;3.63;;;;;;;16.03;100.00;100821.00;5198564;28;20072;-75
2022/08/28 04:12:42;;;;;;;16.00;3.33;;;;;;;16.07;100.00;100826.00;5193163;28;20052;-76
2022/08/28 04:15:13;;;;;;;11.65;3.78;;;;;;;16.04;100.00;100823.53;5207089;28;20024;-76
2022/08/28 04:17:44;;;;;;;15.07;3.20;;;;;;;16.13;100.00;100820.41;5185959;28;20021;-75
2022/08/28 04:20:14;;;;;;;14.05;3.40;;;;;;;16.01;100.00;100818.44;5210375;28;20021;-75
2022/08/28 04:22:46;;;;;;;14.02;3.75;;;;;;;15.98;100.00;100826.53;5214340;28;20033;-75
2022/08/28 04:25:16;;;;;;;14.43;3.65;;;;;;;15.98;100.00;100823.88;5192351;28;20052;-72
2022/08/28 04:27:48;;;;;;;11.25;3.08;;;;;;;16.06;100.00;100816.41;5213785;28;20052;-75
2022/08/28 04:30:18;;;;;;;17.25;3.17;;;;;;;16.00;100.00;100815.88;5215961;28;20414;-75
2022/08/28 04:32:48;;;;;;;14.27;3.45;;;;;;;15.97;100.00;100814.28;5212729;28;20041;-75
2022/08/28 04:35:19;;;;;;;16.00;3.15;;;;;;;15.84;100.00;100813.22;5213645;28;20078;-75
2022/08/28 04:37:49;;;;;;;15.30;3.67;;;;;;;16.09;100.00;100820.66;5207712;28;20033;-76
2022/08/28 04:40:20;;;;;;;11.82;2.90;;;;;;;15.90;100.00;100826.06;5208606;28;20049;-75
2022/08/28 04:42:50;;;;;;;13.43;3.60;;;;;;;15.73;100.00;100822.63;5194902;28;20340;-75
2022/08/28 04:45:20;;;;;;;13.10;3.30;;;;;;;16.08;100.00;100821.59;5202747;28;20355;-76
2022/08/28 04:47:51;;;;;;;11.30;3.47;;;;;;;16.15;100.00;100830.88;5212294;28;20033;-75
2022/08/28 04:50:21;;;;;;;16.40;3.75;;;;;;;16.04;100.00;100836.72;5218635;28;20104;-75
2022/08/28 04:52:52;;;;;;;13.82;3.25;;;;;;;16.14;100.00;100829.16;5219715;28;20152;-76
2022/08/28 04:55:23;;;;;;;14.55;3.40;;;;;;;16.10;100.00;100825.00;5216523;28;20021;-75
2022/08/28 04:57:53;;;;;;;13.80;3.70;;;;;;;16.11;100.00;100830.22;5201929;28;20029;-75
2022/08/28 05:00:24;;;;;;;13.88;3.58;;;;;;;16.13;100.00;100827.47;5203472;28;20020;-76
2022/08/28 05:02:54;;;;;;;16.55;3.63;;;;;;;16.33;100.00;100830.72;5200130;28;20225;-75
2022/08/28 05:05:24;;;;;;;15.48;3.47;;;;;;;16.25;100.00;100832.91;5220842;28;20028;-75
2022/08/28 05:07:55;;;;;;;15.23;3.22;;;;;;;16.35;100.00;100833.34;5216118;28;20036;-74
2022/08/28 05:10:25;;;;;;;10.13;3.03;;;;;;;16.28;100.00;100832.78;5210305;28;20024;-76
2022/08/28 05:12:56;;;;;;;11.88;3.05;;;;;;;16.36;100.00;100832.41;5215670;28;20441;-75
2022/08/28 05:15:27;;;;;;;13.00;3.28;;;;;;;16.39;100.00;100830.41;5200332;28;20371;-75
2022/08/28 05:17:58;;;;;;;12.95;3.25;;;;;;;16.65;98.89;100827.19;5190272;28;20198;-75
2022/08/28 05:20:28;;;;;;;12.95;3.30;;;;;;;16.80;99.20;100831.59;5194700;28;20017;-75
2022/08/28 05:22:58;;;;;;;13.85;3.20;;;;;;;16.77;100.00;100833.56;5224138;28;20088;-74
2022/08/28 05:25:29;;;;;;;13.18;2.92;;;;;;;17.73;94.59;100831.34;5224345;28;20031;-75
2022/08/28 05:27:59;;;;;;;15.70;3.20;;;;;;;18.57;88.68;100842.75;5222464;28;20452;-76
2022/08/28 05:30:30;;;;;;;11.73;2.90;;;;;;;19.68;83.75;100829.94;5201204;28;20032;-75
2022/08/28 05:33:01;;;;;;;15.30;3.47;;;;;;;19.68;82.49;100833.47;5221668;28;20037;-75
2022/08/28 05:35:32;;;;;;;10.45;3.05;;;;;;;20.53;78.95;100834.47;5204738;28;20036;-75
2022/08/28 05:38:03;;;;;;;8.68;2.35;;;;;;;21.14;78.18;100829.00;5219067;28;20507;-76
2022/08/28 05:40:41;;;;;;;9.80;2.80;;;;;;;22.13;72.24;100830.09;5207624;28;20033;-72
2022/08/28 05:43:14;;;;;;;13.60;3.47;;;;;;;21.54;74.05;100839.19;5217122;28;20022;-76
2022/08/28 05:45:44;;;;;;;10.57;3.08;;;;;;;20.40;77.26;100841.59;5202647;28;20028;-75
2022/08/28 05:48:15;;;;;;;10.35;2.72;;;;;;;19.78;80.67;100847.78;5209823;28;20022;-74
2022/08/28 05:50:45;;;;;;;13.13;3.05;;;;;;;19.09;83.97;100843.72;5216394;28;20017;-76
2022/08/28 05:53:16;;;;;;;13.77;3.20;;;;;;;18.61;86.45;100846.91;5220463;28;20194;-76
2022/08/28 05:55:47;;;;;;;13.20;3.20;;;;;;;18.67;87.17;100843.84;5202871;28;20033;-75
2022/08/28 05:58:30;;;;;;;14.70;3.33;;;;;;;18.62;87.55;100845.94;5218104;28;20487;-75
2022/08/28 06:01:05;;;;;;;14.50;3.63;;;;;;;18.78;87.30;100844.84;5214776;28;20128;-75
2022/08/28 06:03:36;;;;;;;17.43;3.57;;;;;;;18.91;87.04;100853.72;5227109;28;20021;-73
2022/08/28 06:06:08;;;;;;;9.40;2.65;;;;;;;18.99;86.62;100848.78;5215681;28;20633;-75
2022/08/28 06:08:39;;;;;;;12.68;3.03;;;;;;;19.10;86.85;100848.06;5197301;28;20029;-75
2022/08/28 06:11:10;;;;;;;17.27;3.47;;;;;;;18.95;85.94;100849.91;5199422;28;20434;-74
2022/08/28 06:13:41;;;;;;;15.63;3.00;;;;;;;19.01;85.59;100849.53;5217331;28;20029;-75
2022/08/28 06:16:12;;;;;;;12.52;2.97;;;;;;;19.08;86.17;100856.09;5221758;28;20029;-71
2022/08/28 06:18:43;;;;;;;11.43;2.90;;;;;;;18.63;88.05;100863.53;5188843;28;20029;-76
2022/08/28 06:21:13;;;;;;;12.48;3.10;;;;;;;18.80;87.20;100864.13;5204134;28;20029;-75
2022/08/28 06:23:43;;;;;;;11.38;2.63;;;;;;;19.19;85.88;100869.53;5212531;28;20025;-76
2022/08/28 06:26:14;;;;;;;12.07;3.10;;;;;;;18.94;85.63;100868.56;5191537;28;20040;-75
2022/08/28 06:28:44;;;;;;;13.93;2.92;;;;;;;18.96;85.83;100870.16;5200440;28;20072;-75
2022/08/28 06:31:14;;;;;;;10.35;2.78;;;;;;;19.09;85.40;100873.69;5202832;28;20055;-76
2022/08/28 06:33:45;;;;;;;10.23;2.88;;;;;;;18.81;86.83;100876.47;5215232;28;20131;-76
2022/08/28 06:36:15;;;;;;;14.35;2.85;;;;;;;18.96;86.52;100869.31;5207778;28;20033;-76
2022/08/28 06:38:46;;;;;;;13.77;2.75;;;;;;;19.13;85.17;100875.19;5218558;28;20025;-76
2022/08/28 06:41:17;;;;;;;11.32;2.85;;;;;;;19.89;82.92;100871.78;5192194;28;20037;-76
2022/08/28 06:43:47;;;;;;;10.38;2.83;;;;;;;21.32;76.55;100862.19;5214530;28;20032;-76
2022/08/28 06:46:18;;;;;;;7.75;2.47;;;;;;;21.78;76.30;100863.94;5195578;28;20387;-75
2022/08/28 06:48:48;;;;;;;11.63;2.42;;;;;;;21.69;73.87;100871.78;5205864;28;20453;-76
2022/08/28 06:51:19;;;;;;;11.00;2.70;;;;;;;21.77;74.50;100872.06;5181516;23;20045;-73
2022/08/28 06:53:49;;;;;;;14.90;3.30;;;;;;;21.65;73.76;100875.63;5163295;28;20089;-73
2022/08/28 06:56:20;;;;;;;11.70;3.22;;;;;;;20.76;76.28;100876.13;5165934;28;20029;-73
2022/08/28 06:58:50;;;;;;;12.73;2.80;;;;;;;20.55;77.70;100872.38;5167546;28;20088;-73
2022/08/28 07:01:30;;;;;;;11.13;2.33;;;;;;;20.03;79.96;100890.28;5169535;28;20026;-72
2022/08/28 07:04:06;;;;;;;12.23;3.10;;;;;;;19.34;81.75;100895.03;5162254;28;20439;-72
2022/08/28 07:06:40;;;;;;;12.75;2.53;;;;;;;19.21;81.67;100902.09;5157210;28;20023;-72
2022/08/28 07:09:10;;;;;;;15.20;3.60;;;;;;;19.31;82.58;100895.22;5159895;28;20042;-73
2022/08/28 07:11:45;;;;;;;11.38;2.75;;;;;;;19.12;83.65;100905.28;5164025;28;20065;-72
2022/08/28 07:14:15;;;;;;;12.30;2.87;;;;;;;19.18;82.70;100904.94;5126410;28;20411;-73
2022/08/28 07:16:46;;;;;;;12.95;3.08;;;;;;;19.22;83.42;100905.56;5163179;28;20022;-73
2022/08/28 07:19:16;;;;;;;10.07;2.63;;;;;;;19.18;83.48;100904.09;5159569;28;20496;-72
2022/08/28 07:21:46;;;;;;;12.95;2.97;;;;;;;19.16;83.13;100901.56;5159876;28;20038;-73
2022/08/28 07:24:17;;;;;;;11.02;2.30;;;;;;;19.20;83.25;100899.53;5159299;28;20073;-72
2022/08/28 07:26:48;;;;;;;12.75;2.88;;;;;;;19.28;82.78;100900.72;5158287;28;20053;-73
2022/08/28 07:29:18;;;;;;;10.63;2.95;;;;;;;19.23;82.35;100900.19;5159174;28;20057;-72
2022/08/28 07:31:52;;;;;;;12.07;2.45;;;;;;;19.21;82.08;100902.09;5142344;28;20037;-73
2022/08/28 07:34:22;;;;;;;15.45;2.70;;;;;;;19.18;81.73;100904.09;5159703;28;20076;-72
2022/08/28 07:36:53;;;;;;;13.70;2.70;;;;;;;19.40;81.35;100904.34;5159898;28;20439;-72
2022/08/28 07:39:23;;;;;;;15.00;3.10;;;;;;;19.47;80.20;100906.50;5168280;28;20025;-73
2022/08/28 07:41:53;;;;;;;10.10;2.60;;;;;;;19.55;80.57;100909.50;5168220;28;20022;-73
2022/08/28 07:47:13;;;;;;;10.95;2.55;;;;;;;19.98;78.95;100908.28;5158210;28;20121;-73
2022/08/28 07:49:44;;;;;;;10.55;2.20;;;;;;;19.96;77.86;100899.56;5158387;28;20034;-72
2022/08/28 07:52:16;;;;;;;12.95;2.42;;;;;;;19.99;77.84;100909.97;5159516;28;20290;-73
2022/08/28 07:54:47;;;;;;;10.10;2.40;;;;;;;20.92;76.23;100903.34;5158888;28;20468;-72
2022/08/28 07:57:19;;;;;;;11.15;2.47;;;;;;;21.09;73.70;100903.78;5157899;28;20503;-72
2022/08/28 07:59:51;;;;;;;11.45;2.45;;;;;;;20.84;73.39;100906.53;5163224;28;20569;-73
2022/08/28 08:02:21;;;;;;;11.80;2.35;;;;;;;22.21;69.83;100907.56;5159086;28;20058;-72
2022/08/28 08:04:52;;;;;;;12.35;2.50;;;;;;;23.18;67.17;100904.97;5159716;28;20120;-72
2022/08/28 08:07:22;;;;;;;9.82;2.38;;;;;;;24.19;64.04;100902.53;5163131;28;20041;-72
2022/08/28 08:09:52;;;;;;;8.38;2.17;;;;;;;22.73;68.50;100917.66;5170490;28;20478;-73
2022/08/28 08:12:23;;;;;;;11.68;2.70;;;;;;;23.67;65.85;100912.44;5151052;28;20038;-73
2022/08/28 08:14:55;;;;;;;10.68;2.10;;;;;;;23.08;67.65;100908.50;5158303;28;20116;-73
2022/08/28 08:17:25;;;;;;;9.27;2.10;;;;;;;23.10;67.26;100918.06;5157555;28;20181;-73
2022/08/28 08:19:55;;;;;;;11.25;2.53;;;;;;;21.86;69.59;100919.22;5157820;28;20117;-73
2022/08/28 08:22:26;;;;;;;9.52;2.00;;;;;;;20.91;72.27;100922.91;5153673;28;20704;-73
2022/08/28 08:24:56;;;;;;;9.05;2.13;;;;;;;20.82;73.55;100923.50;5156959;28;20163;-73
2022/08/28 08:27:27;;;;;;;8.63;2.00;;;;;;;20.80;74.26;100925.44;5156399;28;20034;-72
2022/08/28 08:29:57;;;;;;;10.68;2.33;;;;;;;20.47;73.71;100921.69;5157580;28;20033;-73
2022/08/28 08:32:28;;;;;;;9.30;2.72;;;;;;;20.66;73.89;100924.75;5156889;28;20173;-72
2022/08/28 08:34:58;;;;;;;7.78;2.05;;;;;;;20.35;74.82;100917.22;5139723;28;20038;-73
2022/08/28 08:37:29;;;;;;;11.43;2.47;;;;;;;20.38;75.72;100917.88;5142233;28;20130;-72
2022/08/28 08:39:59;;;;;;;8.63;2.35;;;;;;;20.16;75.80;100922.97;5156682;28;20057;-73
2022/08/28 08:42:31;;;;;;;9.23;2.05;;;;;;;20.33;75.79;100927.94;5157993;28;20074;-72
2022/08/28 08:45:04;;;;;;;10.13;2.35;;;;;;;20.11;75.11;100925.09;5158036;28;20034;-72
2022/08/28 08:47:48;;;;;;;8.85;2.15;;;;;;;20.10;75.56;100923.41;5151158;28;20542;-72
2022/08/28 08:50:27;;;;;;;8.70;2.20;;;;;;;19.66;76.62;100916.75;5158330;28;20064;-73
2022/08/28 08:53:30;;;;;;;8.68;2.45;;;;;;;19.80;76.27;100920.16;5155828;28;20038;-72
2022/08/28 08:56:04;;;;;;;11.73;2.25;;;;;;;19.78;76.57;100924.72;5157801;28;20507;-72
2022/08/28 08:58:41;;;;;;;9.02;2.58;;;;;;;20.05;76.36;100925.53;5155002;28;20054;-72
2022/08/28 09:01:31;;;;;;;6.97;2.20;;;;;;;20.22;75.70;100922.56;5163827;28;20026;-72
2022/08/28 09:04:21;;;;;;;12.45;2.40;;;;;;;21.37;72.32;100916.75;5167260;28;20037;-73
2022/08/28 09:07:12;;;;;;;8.65;2.40;;;;;;;20.99;72.21;100920.53;5160507;28;20498;-73
2022/08/28 09:09:49;;;;;;;9.13;2.13;;;;;;;21.08;70.85;100928.66;5155377;28;20400;-72
2022/08/28 09:12:30;;;;;;;8.48;2.00;;;;;;;22.76;66.58;100916.44;5154897;28;20068;-73
2022/08/28 09:15:16;;;;;;;6.25;2.05;;;;;;;23.96;61.81;100919.69;5156425;28;20040;-73
2022/08/28 09:17:51;;;;;;;10.40;2.00;;;;;;;25.30;59.25;100908.59;5159635;28;20049;-73
2022/08/28 09:20:26;;;;;;;5.47;2.28;;;;;;;26.37;57.38;100905.47;5155533;28;20575;-73
2022/08/28 09:22:56;;;;;;;6.35;1.77;;;;;;;26.57;56.49;100911.66;5154609;28;20422;-73
2022/08/28 09:25:50;;;;;;;7.13;2.20;;;;;;;26.52;55.90;100909.41;5156187;28;20034;-73
2022/08/28 09:28:33;;;;;;;7.50;2.10;;;;;;;26.02;56.94;100909.84;5162388;28;20412;-73
2022/08/28 09:31:18;;;;;;;7.97;2.13;;;;;;;24.41;60.26;100907.69;5156080;28;20042;-73
2022/08/28 09:33:51;;;;;;;8.20;1.80;;;;;;;24.20;60.67;100922.09;5159133;28;20778;-73
2022/08/28 09:36:27;;;;;;;7.68;2.08;;;;;;;23.78;61.73;100915.88;5126642;28;20034;-73
2022/08/28 09:39:08;;;;;;;7.50;1.98;;;;;;;23.94;61.99;100910.13;5160333;28;20038;-73
2022/08/28 09:44:55;;;;;;;7.53;2.13;;;;;;;23.43;63.46;100920.66;5159617;28;20104;-73
2022/08/28 09:47:35;;;;;;;12.67;2.17;;;;;;;22.67;65.21;100920.81;5156050;28;20046;-72
2022/08/28 09:50:30;;;;;;;11.60;2.10;;;;;;;22.71;66.52;100913.28;5159050;28;20045;-72
2022/08/28 09:53:12;;;;;;;6.82;2.30;;;;;;;22.85;64.77;100912.19;5157585;28;20031;-72
2022/08/28 09:56:14;;;;;;;7.95;2.08;;;;;;;22.42;65.92;100915.75;5163645;28;20038;-72
2022/08/28 09:59:16;;;;;;;9.25;2.17;;;;;;;23.35;64.57;100922.28;5159801;28;20524;-72
2022/08/28 10:02:05;;;;;;;8.00;2.15;;;;;;;23.39;63.22;100913.03;5143538;28;20057;-73
2022/08/28 10:04:58;;;;;;;8.70;1.80;;;;;;;23.12;63.47;100915.28;5157875;28;20038;-73
2022/08/28 10:07:28;;;;;;;10.73;2.50;;;;;;;23.21;64.47;100910.06;5159717;28;20027;-72
2022/08/28 10:10:17;;;;;;;8.60;2.33;;;;;;;23.57;63.73;100911.50;5159054;28;20570;-73
2022/08/28 10:13:03;;;;;;;11.00;2.22;;;;;;;23.10;64.75;100906.53;5158816;28;20288;-72
2022/08/28 10:15:40;;;;;;;10.38;2.15;;;;;;;23.37;63.68;100913.16;5152248;28;20479;-72
2022/08/28 10:18:19;;;;;;;6.53;1.92;;;;;;;23.31;63.89;100911.00;5154956;28;20097;-72
2022/08/28 10:20:52;;;;;;;7.65;2.30;;;;;;;23.24;62.93;100919.63;5158846;28;20543;-73
2022/08/28 10:23:58;;;;;;;11.05;1.90;;;;;;;23.33;63.38;100913.56;5142657;28;20173;-73
2022/08/28 10:26:31;;;;;;;9.65;2.00;;;;;;;23.23;64.25;100917.94;5151047;28;20040;-72
2022/08/28 10:29:10;;;;;;;9.27;2.03;;;;;;;23.15;66.44;100921.25;5153961;28;20038;-72
2022/08/28 10:32:13;;;;;;;10.73;2.30;;;;;;;23.18;64.33;100918.31;5158791;28;20061;-72
2022/08/28 10:35:08;;;;;;;8.85;2.10;;;;;;;23.50;63.45;100915.66;5156492;28;20397;-73
2022/08/28 10:37:56;;;;;;;9.60;2.25;;;;;;;23.26;63.31;100915.88;5137996;28;20308;-72
2022/08/28 10:40:34;;;;;;;6.07;1.85;;;;;;;22.93;62.80;100904.41;5159024;28;20014;-72
2022/08/28 10:43:05;;;;;;;8.25;1.98;;;;;;;22.57;63.59;100915.34;5158150;28;20156;-73
2022/08/28 10:45:36;;;;;;;8.70;1.75;;;;;;;22.58;64.19;100914.38;5141411;28;20117;-72
2022/08/28 10:48:43;;;;;;;8.93;2.25;;;;;;;22.74;64.18;100905.06;5157501;28;20484;-72
2022/08/28 10:51:31;;;;;;;6.75;2.20;;;;;;;22.96;65.06;100910.34;5121057;28;20385;-73
2022/08/28 10:54:11;;;;;;;10.77;2.17;;;;;;;22.91;64.67;100907.22;5157659;28;20039;-72
2022/08/28 10:57:20;;;;;;;12.48;2.30;;;;;;;22.67;64.24;100908.34;5142298;28;20054;-73
2022/08/28 10:59:52;;;;;;;9.10;2.05;;;;;;;22.65;64.77;100912.09;5159101;28;20058;-73
2022/08/28 11:02:25;;;;;;;8.05;1.90;;;;;;;22.74;65.60;100899.72;5156651;28;20076;-73
2022/08/28 11:04:56;;;;;;;8.40;2.40;;;;;;;22.90;64.20;100905.53;5160113;28;20041;-73
2022/08/28 11:07:46;;;;;;;12.75;2.10;;;;;;;22.67;64.15;100907.47;5158927;28;20030;-72
2022/08/28 11:10:28;;;;;;;5.72;1.85;;;;;;;22.73;63.21;100915.00;5159524;28;20026;-72
2022/08/28 11:13:00;;;;;;;9.07;2.03;;;;;;;22.66;63.31;100905.78;5159170;28;20142;-73
2022/08/28 11:15:30;;;;;;;4.45;1.95;;;;;;;22.86;63.38;100912.03;5159871;28;20038;-73
2022/08/28 11:18:12;;;;;;;8.70;1.95;;;;;;;22.77;63.29;100904.81;5159410;28;20034;-72
2022/08/28 11:21:13;;;;;;;6.00;1.75;;;;;;;22.58;63.96;100902.91;5158246;28;20034;-73
2022/08/28 11:24:07;;;;;;;6.90;1.73;;;;;;;22.80;63.68;100904.56;5158718;28;20038;-73
2022/08/28 11:26:55;;;;;;;7.60;2.08;;;;;;;22.84;63.64;100908.66;5156492;28;20051;-72
2022/08/28 11:30:02;;;;;;;7.82;1.88;;;;;;;22.90;63.43;100902.00;5155191;28;20496;-72
2022/08/28 11:32:33;;;;;;;7.35;2.00;;;;;;;22.91;64.04;100899.22;5157562;28;20057;-72
2022/08/28 11:35:06;;;;;;;7.47;2.10;;;;;;;22.84;63.91;100898.00;5159383;28;20042;-73
2022/08/28 11:37:41;;;;;;;8.80;2.00;;;;;;;23.25;63.48;100903.50;5158391;28;20276;-73
2022/08/28 11:40:29;;;;;;;8.15;2.42;;;;;;;23.17;61.95;100897.94;5159181;28;20050;-73
2022/08/28 11:43:28;;;;;;;7.20;1.98;;;;;;;23.05;62.06;100898.09;5158502;28;20041;-73
2022/08/28 11:45:58;;;;;;;8.05;1.95;;;;;;;22.85;63.31;100902.34;5154372;28;20046;-73
2022/08/28 11:48:32;;;;;;;7.35;1.90;;;;;;;22.64;62.82;100895.25;5156366;28;20468;-72
2022/08/28 11:51:24;;;;;;;6.00;2.00;;;;;;;22.73;62.64;100897.16;5143210;28;20034;-72
2022/08/28 11:54:27;;;;;;;7.10;1.90;;;;;;;22.80;61.70;100895.69;5155747;28;20034;-73
2022/08/28 11:57:24;;;;;;;5.80;1.90;;;;;;;22.76;62.05;100897.78;5151586;28;20446;-72
2022/08/28 12:00:00;;;;;;;6.43;1.80;;;;;;;22.78;61.82;100889.66;5128578;28;20073;-72